Terminal Aerodrome Forecast
Issued by NWS Amarillo, TX

Home | Current Version | Previous Version | Text Only | Print | Product List | Glossary On
Versions: 1 2 3 4 5 6 7 8 9 10 11 12 13 14 15 16 17 18 19 20 21 22 23 24 25 26 27 28 29
000
FTUS44 KAMA 250500
TAFAMA
TAF
KAMA 250520Z 2506/2606 21009KT P6SM SKC
     FM251700 21015G22KT P6SM FEW300
     FM260000 19013KT P6SM FEW300=

USA.gov is the U.S. government's official web portal to all federal, state and local government web resources and services.